sensor_id;sensor_type;location;lat;lon;timestamp;temperature;humidity
21282;DHT22;10800;53.096;18.328;2023-05-25T00:03:07;13.00;99.90
21282;DHT22;10800;53.096;18.328;2023-05-25T00:08:17;12.90;99.90
21282;DHT22;10800;53.096;18.328;2023-05-25T00:13:23;12.90;99.90
21282;DHT22;10800;53.096;18.328;2023-05-25T00:18:28;12.90;99.90
21282;DHT22;10800;53.096;18.328;2023-05-25T00:23:33;12.90;99.90
21282;DHT22;10800;53.096;18.328;2023-05-25T00:28:38;12.80;99.90
21282;DHT22;10800;53.096;18.328;2023-05-25T00:33:44;12.80;99.90
21282;DHT22;10800;53.096;18.328;2023-05-25T00:38:49;12.70;99.90
21282;DHT22;10800;53.096;18.328;2023-05-25T00:43:55;12.70;99.90
21282;DHT22;10800;53.096;18.328;2023-05-25T00:49:00;12.70;99.90
21282;DHT22;10800;53.096;18.328;2023-05-25T00:54:06;12.60;99.90
21282;DHT22;10800;53.096;18.328;2023-05-25T00:59:15;12.50;99.90
21282;DHT22;10800;53.096;18.328;2023-05-25T01:04:22;12.50;99.90
21282;DHT22;10800;53.096;18.328;2023-05-25T01:09:31;12.40;99.90
21282;DHT22;10800;53.096;18.328;2023-05-25T01:14:38;12.40;99.90
21282;DHT22;10800;53.096;18.328;2023-05-25T01:19:45;12.40;99.90
21282;DHT22;10800;53.096;18.328;2023-05-25T01:25:13;12.40;99.90
21282;DHT22;10800;53.096;18.328;2023-05-25T01:30:22;12.30;99.90
21282;DHT22;10800;53.096;18.328;2023-05-25T01:35:33;12.30;99.90
21282;DHT22;10800;53.096;18.328;2023-05-25T01:40:43;12.30;99.90
21282;DHT22;10800;53.096;18.328;2023-05-25T01:45:48;12.20;99.90
21282;DHT22;10800;53.096;18.328;2023-05-25T01:51:00;12.20;99.90
21282;DHT22;10800;53.096;18.328;2023-05-25T01:56:09;12.10;99.90
21282;DHT22;10800;53.096;18.328;2023-05-25T02:01:16;12.10;99.90
21282;DHT22;10800;53.096;18.328;2023-05-25T02:06:25;12.10;99.90
21282;DHT22;10800;53.096;18.328;2023-05-25T02:11:38;12.10;99.90
21282;DHT22;10800;53.096;18.328;2023-05-25T02:16:43;12.10;99.90
21282;DHT22;10800;53.096;18.328;2023-05-25T02:21:50;12.10;99.90
21282;DHT22;10800;53.096;18.328;2023-05-25T02:26:58;12.00;99.90
21282;DHT22;10800;53.096;18.328;2023-05-25T02:32:09;12.00;99.90
21282;DHT22;10800;53.096;18.328;2023-05-25T02:37:14;12.00;99.90
21282;DHT22;10800;53.096;18.328;2023-05-25T02:42:24;11.90;99.90
21282;DHT22;10800;53.096;18.328;2023-05-25T02:47:34;11.90;99.90
21282;DHT22;10800;53.096;18.328;2023-05-25T02:52:39;11.90;99.90
21282;DHT22;10800;53.096;18.328;2023-05-25T02:57:45;11.90;99.90
21282;DHT22;10800;53.096;18.328;2023-05-25T03:02:51;11.90;99.90
21282;DHT22;10800;53.096;18.328;2023-05-25T03:07:58;11.90;99.90
21282;DHT22;10800;53.096;18.328;2023-05-25T03:13:04;11.80;99.90
21282;DHT22;10800;53.096;18.328;2023-05-25T03:18:11;11.80;99.90
21282;DHT22;10800;53.096;18.328;2023-05-25T03:23:20;11.80;99.90
21282;DHT22;10800;53.096;18.328;2023-05-25T03:28:32;11.80;99.90
21282;DHT22;10800;53.096;18.328;2023-05-25T03:33:39;11.80;99.90
21282;DHT22;10800;53.096;18.328;2023-05-25T03:38:57;11.90;99.90
21282;DHT22;10800;53.096;18.328;2023-05-25T03:44:11;12.00;99.90
21282;DHT22;10800;53.096;18.328;2023-05-25T03:49:33;12.10;99.90
21282;DHT22;10800;53.096;18.328;2023-05-25T03:54:40;12.20;99.90
21282;DHT22;10800;53.096;18.328;2023-05-25T03:59:45;12.20;99.90
21282;DHT22;10800;53.096;18.328;2023-05-25T04:04:52;12.40;99.90
21282;DHT22;10800;53.096;18.328;2023-05-25T04:09:59;12.40;99.90
21282;DHT22;10800;53.096;18.328;2023-05-25T04:15:08;12.50;99.90
21282;DHT22;10800;53.096;18.328;2023-05-25T04:20:18;12.60;99.90
21282;DHT22;10800;53.096;18.328;2023-05-25T04:25:30;12.60;99.90
21282;DHT22;10800;53.096;18.328;2023-05-25T04:30:39;12.70;99.90
21282;DHT22;10800;53.096;18.328;2023-05-25T04:35:47;12.70;99.90
21282;DHT22;10800;53.096;18.328;2023-05-25T04:40:54;12.70;99.90
21282;DHT22;10800;53.096;18.328;2023-05-25T04:46:11;12.70;99.90
21282;DHT22;10800;53.096;18.328;2023-05-25T04:51:42;12.80;99.90
21282;DHT22;10800;53.096;18.328;2023-05-25T04:56:48;12.80;99.90
21282;DHT22;10800;53.096;18.328;2023-05-25T05:02:02;12.90;99.90
21282;DHT22;10800;53.096;18.328;2023-05-25T05:07:11;13.10;99.90
21282;DHT22;10800;53.096;18.328;2023-05-25T05:12:17;13.40;99.90
21282;DHT22;10800;53.096;18.328;2023-05-25T05:17:29;13.80;99.90
21282;DHT22;10800;53.096;18.328;2023-05-25T05:22:36;14.20;99.90
21282;DHT22;10800;53.096;18.328;2023-05-25T05:27:43;14.60;99.90
21282;DHT22;10800;53.096;18.328;2023-05-25T05:32:48;15.00;99.90
21282;DHT22;10800;53.096;18.328;2023-05-25T05:37:55;15.20;99.90
21282;DHT22;10800;53.096;18.328;2023-05-25T05:43:10;15.10;99.90
21282;DHT22;10800;53.096;18.328;2023-05-25T05:48:16;15.20;99.90
21282;DHT22;10800;53.096;18.328;2023-05-25T05:53:27;15.60;99.90
21282;DHT22;10800;53.096;18.328;2023-05-25T05:58:32;16.00;99.90
21282;DHT22;10800;53.096;18.328;2023-05-25T06:03:38;16.30;99.90
21282;DHT22;10800;53.096;18.328;2023-05-25T06:08:44;16.60;99.90
21282;DHT22;10800;53.096;18.328;2023-05-25T06:13:49;17.00;99.90
21282;DHT22;10800;53.096;18.328;2023-05-25T06:18:55;17.40;99.90
21282;DHT22;10800;53.096;18.328;2023-05-25T06:24:00;17.70;99.90
21282;DHT22;10800;53.096;18.328;2023-05-25T06:29:06;18.00;99.90
21282;DHT22;10800;53.096;18.328;2023-05-25T06:34:11;18.00;99.90
21282;DHT22;10800;53.096;18.328;2023-05-25T06:39:16;18.20;99.90
21282;DHT22;10800;53.096;18.328;2023-05-25T06:44:22;18.20;99.90
21282;DHT22;10800;53.096;18.328;2023-05-25T06:49:28;18.50;99.90
21282;DHT22;10800;53.096;18.328;2023-05-25T06:54:33;19.20;99.90
21282;DHT22;10800;53.096;18.328;2023-05-25T06:59:39;19.70;99.90
21282;DHT22;10800;53.096;18.328;2023-05-25T07:04:44;20.30;99.90
21282;DHT22;10800;53.096;18.328;2023-05-25T07:09:50;20.60;98.80
21282;DHT22;10800;53.096;18.328;2023-05-25T07:15:00;21.00;97.60
21282;DHT22;10800;53.096;18.328;2023-05-25T07:20:06;21.60;95.40
21282;DHT22;10800;53.096;18.328;2023-05-25T07:25:14;21.80;95.60
21282;DHT22;10800;53.096;18.328;2023-05-25T07:30:19;22.20;93.20
21282;DHT22;10800;53.096;18.328;2023-05-25T07:35:27;22.60;93.00
21282;DHT22;10800;53.096;18.328;2023-05-25T07:40:33;22.70;91.60
21282;DHT22;10800;53.096;18.328;2023-05-25T07:45:39;23.00;90.50
21282;DHT22;10800;53.096;18.328;2023-05-25T07:50:45;23.80;87.40
21282;DHT22;10800;53.096;18.328;2023-05-25T07:55:51;24.10;84.50
21282;DHT22;10800;53.096;18.328;2023-05-25T08:01:02;24.20;84.90
21282;DHT22;10800;53.096;18.328;2023-05-25T08:06:07;24.20;80.30
21282;DHT22;10800;53.096;18.328;2023-05-25T08:11:14;23.70;83.50
21282;DHT22;10800;53.096;18.328;2023-05-25T08:16:20;24.00;83.70
21282;DHT22;10800;53.096;18.328;2023-05-25T08:21:25;24.80;81.50
21282;DHT22;10800;53.096;18.328;2023-05-25T08:26:31;25.50;79.70
21282;DHT22;10800;53.096;18.328;2023-05-25T08:31:47;25.70;76.70
21282;DHT22;10800;53.096;18.328;2023-05-25T08:36:55;26.00;75.10
21282;DHT22;10800;53.096;18.328;2023-05-25T08:42:03;26.00;74.40
21282;DHT22;10800;53.096;18.328;2023-05-25T08:52:44;25.60;73.80
21282;DHT22;10800;53.096;18.328;2023-05-25T08:58:01;25.20;74.60
21282;DHT22;10800;53.096;18.328;2023-05-25T09:03:10;25.80;73.40
21282;DHT22;10800;53.096;18.328;2023-05-25T09:08:21;27.40;74.20
21282;DHT22;10800;53.096;18.328;2023-05-25T09:13:26;27.20;67.20
21282;DHT22;10800;53.096;18.328;2023-05-25T09:18:32;26.90;65.60
21282;DHT22;10800;53.096;18.328;2023-05-25T09:23:37;26.80;68.30
21282;DHT22;10800;53.096;18.328;2023-05-25T09:28:50;26.30;68.00
21282;DHT22;10800;53.096;18.328;2023-05-25T09:33:55;26.70;68.20
21282;DHT22;10800;53.096;18.328;2023-05-25T09:39:03;27.20;65.80
21282;DHT22;10800;53.096;18.328;2023-05-25T09:44:08;27.30;65.50
21282;DHT22;10800;53.096;18.328;2023-05-25T09:49:15;27.90;63.40
21282;DHT22;10800;53.096;18.328;2023-05-25T09:54:23;28.20;61.10
21282;DHT22;10800;53.096;18.328;2023-05-25T09:59:28;27.10;58.90
21282;DHT22;10800;53.096;18.328;2023-05-25T10:04:33;27.10;61.80
21282;DHT22;10800;53.096;18.328;2023-05-25T10:09:40;27.80;60.80
21282;DHT22;10800;53.096;18.328;2023-05-25T10:14:48;28.30;58.20
21282;DHT22;10800;53.096;18.328;2023-05-25T10:19:58;28.10;57.80
21282;DHT22;10800;53.096;18.328;2023-05-25T10:25:31;26.80;58.70
21282;DHT22;10800;53.096;18.328;2023-05-25T10:30:38;26.40;62.00
21282;DHT22;10800;53.096;18.328;2023-05-25T10:35:45;27.10;61.80
21282;DHT22;10800;53.096;18.328;2023-05-25T10:41:01;27.60;63.70
21282;DHT22;10800;53.096;18.328;2023-05-25T10:46:08;26.90;59.70
21282;DHT22;10800;53.096;18.328;2023-05-25T10:51:20;27.20;58.50
21282;DHT22;10800;53.096;18.328;2023-05-25T10:56:26;27.40;59.40
21282;DHT22;10800;53.096;18.328;2023-05-25T11:01:31;28.70;57.60
21282;DHT22;10800;53.096;18.328;2023-05-25T11:17:14;27.80;57.20
21282;DHT22;10800;53.096;18.328;2023-05-25T11:22:22;27.30;56.90
21282;DHT22;10800;53.096;18.328;2023-05-25T11:27:29;27.20;59.80
21282;DHT22;10800;53.096;18.328;2023-05-25T11:32:35;28.40;57.60
21282;DHT22;10800;53.096;18.328;2023-05-25T11:37:48;28.10;55.70
21282;DHT22;10800;53.096;18.328;2023-05-25T11:42:51;26.60;57.10
21282;DHT22;10800;53.096;18.328;2023-05-25T11:47:57;26.20;58.40
21282;DHT22;10800;53.096;18.328;2023-05-25T11:53:04;27.30;57.40
21282;DHT22;10800;53.096;18.328;2023-05-25T11:58:10;27.70;55.00
21282;DHT22;10800;53.096;18.328;2023-05-25T12:03:31;27.30;55.50
21282;DHT22;10800;53.096;18.328;2023-05-25T12:08:37;26.40;57.70
21282;DHT22;10800;53.096;18.328;2023-05-25T12:13:42;26.80;61.00
21282;DHT22;10800;53.096;18.328;2023-05-25T12:18:47;27.30;57.00
21282;DHT22;10800;53.096;18.328;2023-05-25T12:23:53;26.30;56.80
21282;DHT22;10800;53.096;18.328;2023-05-25T12:29:03;25.70;59.50
21282;DHT22;10800;53.096;18.328;2023-05-25T12:34:14;26.70;56.90
21282;DHT22;10800;53.096;18.328;2023-05-25T12:44:43;27.00;55.40
21282;DHT22;10800;53.096;18.328;2023-05-25T12:50:09;25.60;56.40
21282;DHT22;10800;53.096;18.328;2023-05-25T12:55:29;25.30;58.20
21282;DHT22;10800;53.096;18.328;2023-05-25T13:00:36;25.00;58.70
21282;DHT22;10800;53.096;18.328;2023-05-25T13:05:42;25.40;59.00
21282;DHT22;10800;53.096;18.328;2023-05-25T13:10:55;26.00;57.20
21282;DHT22;10800;53.096;18.328;2023-05-25T13:16:00;25.70;56.10
21282;DHT22;10800;53.096;18.328;2023-05-25T13:21:06;25.70;58.10
21282;DHT22;10800;53.096;18.328;2023-05-25T13:26:13;25.50;58.20
21282;DHT22;10800;53.096;18.328;2023-05-25T13:31:20;25.60;57.10
21282;DHT22;10800;53.096;18.328;2023-05-25T13:36:25;25.20;57.30
21282;DHT22;10800;53.096;18.328;2023-05-25T13:41:31;24.80;57.40
21282;DHT22;10800;53.096;18.328;2023-05-25T13:46:36;24.80;58.90
21282;DHT22;10800;53.096;18.328;2023-05-25T13:51:42;25.00;58.70
21282;DHT22;10800;53.096;18.328;2023-05-25T13:56:47;25.80;56.20
21282;DHT22;10800;53.096;18.328;2023-05-25T14:01:53;25.90;56.20
21282;DHT22;10800;53.096;18.328;2023-05-25T14:06:59;26.60;56.10
21282;DHT22;10800;53.096;18.328;2023-05-25T14:12:06;26.90;54.50
21282;DHT22;10800;53.096;18.328;2023-05-25T14:17:11;27.00;54.00
21282;DHT22;10800;53.096;18.328;2023-05-25T14:22:16;27.10;53.70
21282;DHT22;10800;53.096;18.328;2023-05-25T14:27:22;27.10;54.80
21282;DHT22;10800;53.096;18.328;2023-05-25T14:32:29;27.50;53.70
21282;DHT22;10800;53.096;18.328;2023-05-25T14:37:36;27.30;52.80
21282;DHT22;10800;53.096;18.328;2023-05-25T14:42:41;27.10;52.50
21282;DHT22;10800;53.096;18.328;2023-05-25T14:47:50;26.20;53.40
21282;DHT22;10800;53.096;18.328;2023-05-25T14:52:57;25.50;54.80
21282;DHT22;10800;53.096;18.328;2023-05-25T14:58:05;24.90;56.20
21282;DHT22;10800;53.096;18.328;2023-05-25T15:03:12;24.70;56.60
21282;DHT22;10800;53.096;18.328;2023-05-25T15:08:21;24.30;57.20
21282;DHT22;10800;53.096;18.328;2023-05-25T15:13:27;24.30;57.10
21282;DHT22;10800;53.096;18.328;2023-05-25T15:18:34;24.40;57.60
21282;DHT22;10800;53.096;18.328;2023-05-25T15:23:41;24.20;57.20
21282;DHT22;10800;53.096;18.328;2023-05-25T15:28:47;23.80;57.50
21282;DHT22;10800;53.096;18.328;2023-05-25T15:33:55;23.60;58.90
21282;DHT22;10800;53.096;18.328;2023-05-25T15:39:03;23.80;59.10
21282;DHT22;10800;53.096;18.328;2023-05-25T15:44:14;23.80;58.80
21282;DHT22;10800;53.096;18.328;2023-05-25T15:49:19;23.70;58.60
21282;DHT22;10800;53.096;18.328;2023-05-25T15:54:24;23.70;59.60
21282;DHT22;10800;53.096;18.328;2023-05-25T15:59:30;23.50;59.00
21282;DHT22;10800;53.096;18.328;2023-05-25T16:04:35;23.30;59.80
21282;DHT22;10800;53.096;18.328;2023-05-25T16:09:40;23.20;61.40
21282;DHT22;10800;53.096;18.328;2023-05-25T16:14:46;22.90;63.00
21282;DHT22;10800;53.096;18.328;2023-05-25T16:19:51;22.80;63.00
21282;DHT22;10800;53.096;18.328;2023-05-25T16:24:56;22.90;63.50
21282;DHT22;10800;53.096;18.328;2023-05-25T16:30:02;23.00;61.90
21282;DHT22;10800;53.096;18.328;2023-05-25T16:35:08;23.00;61.30
21282;DHT22;10800;53.096;18.328;2023-05-25T16:40:13;22.80;62.20
21282;DHT22;10800;53.096;18.328;2023-05-25T16:45:19;22.40;63.00
21282;DHT22;10800;53.096;18.328;2023-05-25T16:50:29;22.20;63.60
21282;DHT22;10800;53.096;18.328;2023-05-25T16:55:34;22.00;64.40
21282;DHT22;10800;53.096;18.328;2023-05-25T17:00:39;22.00;65.10
21282;DHT22;10800;53.096;18.328;2023-05-25T17:05:45;21.90;64.80
21282;DHT22;10800;53.096;18.328;2023-05-25T17:10:51;21.90;64.30
21282;DHT22;10800;53.096;18.328;2023-05-25T17:15:57;21.80;64.70
21282;DHT22;10800;53.096;18.328;2023-05-25T17:21:03;21.80;65.40
21282;DHT22;10800;53.096;18.328;2023-05-25T17:26:08;21.80;65.00
21282;DHT22;10800;53.096;18.328;2023-05-25T17:31:14;21.70;64.40
21282;DHT22;10800;53.096;18.328;2023-05-25T17:36:19;21.60;65.20
21282;DHT22;10800;53.096;18.328;2023-05-25T17:41:26;21.50;66.50
21282;DHT22;10800;53.096;18.328;2023-05-25T17:46:33;21.50;67.00
21282;DHT22;10800;53.096;18.328;2023-05-25T17:51:39;21.40;67.20
21282;DHT22;10800;53.096;18.328;2023-05-25T17:56:45;21.20;67.40
21282;DHT22;10800;53.096;18.328;2023-05-25T18:01:50;21.00;68.00
21282;DHT22;10800;53.096;18.328;2023-05-25T18:06:56;20.90;68.30
21282;DHT22;10800;53.096;18.328;2023-05-25T18:12:01;20.80;69.30
21282;DHT22;10800;53.096;18.328;2023-05-25T18:17:07;20.70;69.30
21282;DHT22;10800;53.096;18.328;2023-05-25T18:22:19;20.70;70.40
21282;DHT22;10800;53.096;18.328;2023-05-25T18:27:25;20.40;70.70
21282;DHT22;10800;53.096;18.328;2023-05-25T18:32:36;20.20;71.90
21282;DHT22;10800;53.096;18.328;2023-05-25T18:37:42;20.00;73.30
21282;DHT22;10800;53.096;18.328;2023-05-25T18:42:47;19.90;74.10
21282;DHT22;10800;53.096;18.328;2023-05-25T18:47:54;19.70;74.00
21282;DHT22;10800;53.096;18.328;2023-05-25T18:53:00;19.50;74.80
21282;DHT22;10800;53.096;18.328;2023-05-25T18:58:06;19.30;75.50
21282;DHT22;10800;53.096;18.328;2023-05-25T19:03:13;19.10;76.50
21282;DHT22;10800;53.096;18.328;2023-05-25T19:08:19;19.00;77.10
21282;DHT22;10800;53.096;18.328;2023-05-25T19:13:24;18.80;79.20
21282;DHT22;10800;53.096;18.328;2023-05-25T19:18:29;18.80;78.80
21282;DHT22;10800;53.096;18.328;2023-05-25T19:23:35;18.60;78.80
21282;DHT22;10800;53.096;18.328;2023-05-25T19:28:40;18.50;80.20
21282;DHT22;10800;53.096;18.328;2023-05-25T19:33:46;18.30;80.30
21282;DHT22;10800;53.096;18.328;2023-05-25T19:38:53;18.10;81.70
21282;DHT22;10800;53.096;18.328;2023-05-25T19:43:58;18.00;81.40
21282;DHT22;10800;53.096;18.328;2023-05-25T19:49:05;17.90;82.80
21282;DHT22;10800;53.096;18.328;2023-05-25T19:54:11;17.80;82.90
21282;DHT22;10800;53.096;18.328;2023-05-25T19:59:16;17.70;82.70
21282;DHT22;10800;53.096;18.328;2023-05-25T20:04:26;17.50;81.80
21282;DHT22;10800;53.096;18.328;2023-05-25T20:09:45;17.40;81.70
21282;DHT22;10800;53.096;18.328;2023-05-25T20:14:50;17.20;82.40
21282;DHT22;10800;53.096;18.328;2023-05-25T20:19:56;17.10;82.20
21282;DHT22;10800;53.096;18.328;2023-05-25T20:25:04;17.00;83.50
21282;DHT22;10800;53.096;18.328;2023-05-25T20:30:15;16.90;82.90
21282;DHT22;10800;53.096;18.328;2023-05-25T20:35:20;16.80;82.90
21282;DHT22;10800;53.096;18.328;2023-05-25T20:40:26;16.70;82.60
21282;DHT22;10800;53.096;18.328;2023-05-25T20:45:31;16.60;83.10
21282;DHT22;10800;53.096;18.328;2023-05-25T20:50:37;16.40;84.90
21282;DHT22;10800;53.096;18.328;2023-05-25T20:55:42;16.30;84.60
21282;DHT22;10800;53.096;18.328;2023-05-25T21:00:48;16.20;85.90
21282;DHT22;10800;53.096;18.328;2023-05-25T21:05:53;16.10;86.30
21282;DHT22;10800;53.096;18.328;2023-05-25T21:10:59;15.90;87.10
21282;DHT22;10800;53.096;18.328;2023-05-25T21:16:05;15.80;88.20
21282;DHT22;10800;53.096;18.328;2023-05-25T21:21:10;15.80;87.80
21282;DHT22;10800;53.096;18.328;2023-05-25T21:26:17;15.60;90.00
21282;DHT22;10800;53.096;18.328;2023-05-25T21:31:25;15.50;90.00
21282;DHT22;10800;53.096;18.328;2023-05-25T21:36:30;15.30;90.50
21282;DHT22;10800;53.096;18.328;2023-05-25T21:41:36;15.20;90.80
21282;DHT22;10800;53.096;18.328;2023-05-25T21:46:42;15.10;91.10
21282;DHT22;10800;53.096;18.328;2023-05-25T21:51:47;15.10;91.30
21282;DHT22;10800;53.096;18.328;2023-05-25T21:56:53;14.90;91.80
21282;DHT22;10800;53.096;18.328;2023-05-25T22:01:58;14.90;92.20
21282;DHT22;10800;53.096;18.328;2023-05-25T22:07:04;14.80;92.60
21282;DHT22;10800;53.096;18.328;2023-05-25T22:12:10;14.70;93.40
21282;DHT22;10800;53.096;18.328;2023-05-25T22:17:16;14.50;94.30
21282;DHT22;10800;53.096;18.328;2023-05-25T22:22:22;14.40;94.90
21282;DHT22;10800;53.096;18.328;2023-05-25T22:27:27;14.30;95.90
21282;DHT22;10800;53.096;18.328;2023-05-25T22:32:33;14.20;96.60
21282;DHT22;10800;53.096;18.328;2023-05-25T22:37:38;14.20;95.50
21282;DHT22;10800;53.096;18.328;2023-05-25T22:42:44;14.10;93.40
21282;DHT22;10800;53.096;18.328;2023-05-25T22:47:51;14.00;93.50
21282;DHT22;10800;53.096;18.328;2023-05-25T22:52:57;13.90;93.40
21282;DHT22;10800;53.096;18.328;2023-05-25T22:58:02;13.80;93.10
21282;DHT22;10800;53.096;18.328;2023-05-25T23:03:07;13.80;92.70
21282;DHT22;10800;53.096;18.328;2023-05-25T23:08:13;13.70;93.30
21282;DHT22;10800;53.096;18.328;2023-05-25T23:13:19;13.60;93.60
21282;DHT22;10800;53.096;18.328;2023-05-25T23:18:26;13.50;94.10
21282;DHT22;10800;53.096;18.328;2023-05-25T23:23:31;13.30;95.10
21282;DHT22;10800;53.096;18.328;2023-05-25T23:28:36;13.00;96.60
21282;DHT22;10800;53.096;18.328;2023-05-25T23:33:41;12.80;98.10
21282;DHT22;10800;53.096;18.328;2023-05-25T23:38:46;12.60;99.90
21282;DHT22;10800;53.096;18.328;2023-05-25T23:43:52;12.50;99.90
21282;DHT22;10800;53.096;18.328;2023-05-25T23:48:57;12.30;99.90
21282;DHT22;10800;53.096;18.328;2023-05-25T23:54:03;12.20;99.90
21282;DHT22;10800;53.096;18.328;2023-05-25T23:59:08;12.10;99.90
